Terminal Aerodrome Forecast
Issued by NWS

Home | Current Version | Previous Version | Text Only | Print | Product List | Glossary On
Versions: 1 2 3 4 5 6 7 8 9 10 11 12 13 14 15 16
000
FTUS41 KBTV 200528
TAFMPV
TAF
KMPV 200528Z 2006/2106 34008KT P6SM OVC015
      TEMPO 2006/2010 SCT015
     FM201000 VRB03KT P6SM SCT020
     FM202100 VRB03KT P6SM SCT020 BKN080=

USA.gov is the U.S. government's official web portal to all federal, state and local government web resources and services.